Armstrong, Iowa
Current Conditions -  °F | °C
As of 1:52 PM on Wednesday 17 Dec 2014 (Local Time) from KEST Reporting Station
Clear Clear  
Wind Chill: 10°   Ceiling: Unl
Heat Index: 20°   Visibility: 10mi
Dew Point: 14°   Wind: 8mph
Humidity: 78%   Direction: 340°NNW
Pressure: 30.25"   Gusts: NA
Location:  43.4°N, 94.48°W
Report Text: KEST 171952Z AUTO 34007KT 10SM CLR M07/M10 A3025 RMK AO2 SLP270 T10671100
Loading
Personal Weather Stations






























Interactive Weather Map New forecast layout! Learn more

10-Day Weather Forecast

Advertisements
Track Severe Weather on mobile